sensor_id;sensor_type;location;lat;lon;timestamp;pressure;altitude;pressure_sealevel;temperature;humidity
36242;BME280;22283;42.748;12.732;2023-09-19T00:01:22;98077.03;;;22.71;51.09
36242;BME280;22283;42.748;12.732;2023-09-19T00:06:24;98069.81;;;22.56;50.84
36242;BME280;22283;42.748;12.732;2023-09-19T00:11:26;98082.94;;;22.45;51.88
36242;BME280;22283;42.748;12.732;2023-09-19T00:16:27;98077.63;;;22.51;51.28
36242;BME280;22283;42.748;12.732;2023-09-19T00:21:27;98088.41;;;22.51;50.20
36242;BME280;22283;42.748;12.732;2023-09-19T00:26:28;98083.25;;;22.35;49.66
36242;BME280;22283;42.748;12.732;2023-09-19T00:31:31;98086.78;;;22.21;49.65
36242;BME280;22283;42.748;12.732;2023-09-19T00:36:31;98084.16;;;22.13;49.98
36242;BME280;22283;42.748;12.732;2023-09-19T00:41:34;98078.69;;;22.06;52.00
36242;BME280;22283;42.748;12.732;2023-09-19T00:46:36;98076.06;;;22.13;52.47
36242;BME280;22283;42.748;12.732;2023-09-19T00:51:37;98072.84;;;22.02;52.38
36242;BME280;22283;42.748;12.732;2023-09-19T00:56:39;98063.94;;;22.17;52.03
36242;BME280;22283;42.748;12.732;2023-09-19T01:01:41;98070.25;;;22.24;51.70
36242;BME280;22283;42.748;12.732;2023-09-19T01:06:43;98070.63;;;22.21;52.27
36242;BME280;22283;42.748;12.732;2023-09-19T01:11:47;98057.78;;;21.93;53.37
36242;BME280;22283;42.748;12.732;2023-09-19T01:16:55;98057.88;;;21.70;53.71
36242;BME280;22283;42.748;12.732;2023-09-19T01:22:22;98065.75;;;21.42;54.25
36242;BME280;22283;42.748;12.732;2023-09-19T01:33:09;98063.59;;;21.15;53.78
36242;BME280;22283;42.748;12.732;2023-09-19T01:38:15;98052.94;;;20.98;55.25
36242;BME280;22283;42.748;12.732;2023-09-19T01:43:33;98061.03;;;20.75;55.87
36242;BME280;22283;42.748;12.732;2023-09-19T01:48:53;98062.03;;;20.51;56.22
36242;BME280;22283;42.748;12.732;2023-09-19T01:54:00;98048.31;;;20.30;56.89
36242;BME280;22283;42.748;12.732;2023-09-19T01:59:10;98055.34;;;20.31;56.96
36242;BME280;22283;42.748;12.732;2023-09-19T02:04:12;98046.66;;;20.29;57.20
36242;BME280;22283;42.748;12.732;2023-09-19T02:09:13;98052.72;;;20.23;57.48
36242;BME280;22283;42.748;12.732;2023-09-19T02:14:15;98048.53;;;20.20;58.59
36242;BME280;22283;42.748;12.732;2023-09-19T02:19:15;98069.91;;;20.05;59.34
36242;BME280;22283;42.748;12.732;2023-09-19T02:24:16;98081.69;;;20.04;58.93
36242;BME280;22283;42.748;12.732;2023-09-19T02:29:17;98081.53;;;19.98;59.09
36242;BME280;22283;42.748;12.732;2023-09-19T02:34:17;98071.81;;;19.88;61.20
36242;BME280;22283;42.748;12.732;2023-09-19T02:39:18;98084.06;;;19.83;62.02
36242;BME280;22283;42.748;12.732;2023-09-19T02:44:19;98074.38;;;19.74;63.08
36242;BME280;22283;42.748;12.732;2023-09-19T02:49:20;98068.34;;;19.55;64.52
36242;BME280;22283;42.748;12.732;2023-09-19T02:54:21;98054.28;;;19.53;65.26
36242;BME280;22283;42.748;12.732;2023-09-19T02:59:22;98063.66;;;19.57;64.64
36242;BME280;22283;42.748;12.732;2023-09-19T03:04:23;98058.44;;;19.48;66.28
36242;BME280;22283;42.748;12.732;2023-09-19T03:09:24;98064.81;;;19.55;63.98
36242;BME280;22283;42.748;12.732;2023-09-19T03:14:25;98059.25;;;19.89;60.07
36242;BME280;22283;42.748;12.732;2023-09-19T03:19:25;98079.22;;;20.26;57.33
36242;BME280;22283;42.748;12.732;2023-09-19T03:24:28;98075.41;;;20.59;55.29
36242;BME280;22283;42.748;12.732;2023-09-19T03:29:30;98073.47;;;20.99;51.53
36242;BME280;22283;42.748;12.732;2023-09-19T03:34:33;98065.34;;;21.22;53.15
36242;BME280;22283;42.748;12.732;2023-09-19T03:39:34;98060.22;;;21.12;55.50
36242;BME280;22283;42.748;12.732;2023-09-19T03:44:35;98050.84;;;20.85;56.09
36242;BME280;22283;42.748;12.732;2023-09-19T03:49:35;98042.84;;;20.54;56.12
36242;BME280;22283;42.748;12.732;2023-09-19T03:54:37;98041.63;;;20.26;56.53
36242;BME280;22283;42.748;12.732;2023-09-19T03:59:38;98032.06;;;20.23;56.21
36242;BME280;22283;42.748;12.732;2023-09-19T04:04:38;98027.16;;;20.27;54.64
36242;BME280;22283;42.748;12.732;2023-09-19T04:09:39;98026.22;;;20.20;53.37
36242;BME280;22283;42.748;12.732;2023-09-19T04:14:40;98018.59;;;20.62;51.30
36242;BME280;22283;42.748;12.732;2023-09-19T04:19:40;98015.00;;;20.93;50.00
36242;BME280;22283;42.748;12.732;2023-09-19T04:24:42;98000.22;;;21.35;49.04
36242;BME280;22283;42.748;12.732;2023-09-19T04:29:43;98011.00;;;21.94;46.34
36242;BME280;22283;42.748;12.732;2023-09-19T04:34:43;97997.22;;;22.19;45.52
36242;BME280;22283;42.748;12.732;2023-09-19T04:39:44;97997.22;;;22.19;45.47
36242;BME280;22283;42.748;12.732;2023-09-19T04:44:47;97995.66;;;22.09;45.98
36242;BME280;22283;42.748;12.732;2023-09-19T04:49:49;97994.63;;;22.10;46.13
36242;BME280;22283;42.748;12.732;2023-09-19T04:54:50;98020.81;;;22.17;46.20
36242;BME280;22283;42.748;12.732;2023-09-19T04:59:50;98023.28;;;22.33;46.85
36242;BME280;22283;42.748;12.732;2023-09-19T05:04:51;98031.94;;;22.65;46.36
36242;BME280;22283;42.748;12.732;2023-09-19T05:09:51;98034.00;;;22.63;46.72
36242;BME280;22283;42.748;12.732;2023-09-19T05:14:52;98057.72;;;22.52;47.31
36242;BME280;22283;42.748;12.732;2023-09-19T05:19:52;98059.34;;;22.47;47.61
36242;BME280;22283;42.748;12.732;2023-09-19T05:24:53;98064.28;;;22.43;48.58
36242;BME280;22283;42.748;12.732;2023-09-19T05:29:54;98067.44;;;22.47;48.54
36242;BME280;22283;42.748;12.732;2023-09-19T05:34:56;98062.59;;;22.42;48.67
36242;BME280;22283;42.748;12.732;2023-09-19T05:39:56;98063.34;;;22.36;48.85
36242;BME280;22283;42.748;12.732;2023-09-19T05:44:57;98059.34;;;22.47;49.91
36242;BME280;22283;42.748;12.732;2023-09-19T05:49:58;98062.84;;;22.83;49.25
36242;BME280;22283;42.748;12.732;2023-09-19T05:55:00;98065.81;;;23.31;49.40
36242;BME280;22283;42.748;12.732;2023-09-19T06:00:00;98065.59;;;23.76;49.13
36242;BME280;22283;42.748;12.732;2023-09-19T06:05:01;98077.38;;;24.03;48.96
36242;BME280;22283;42.748;12.732;2023-09-19T06:10:04;98074.19;;;24.34;46.06
36242;BME280;22283;42.748;12.732;2023-09-19T06:15:11;98078.28;;;24.58;45.33
36242;BME280;22283;42.748;12.732;2023-09-19T06:20:24;98084.41;;;24.87;44.35
36242;BME280;22283;42.748;12.732;2023-09-19T06:25:26;98086.34;;;25.13;42.76
36242;BME280;22283;42.748;12.732;2023-09-19T06:30:27;98097.22;;;25.33;42.89
36242;BME280;22283;42.748;12.732;2023-09-19T06:35:32;98099.91;;;25.52;43.06
36242;BME280;22283;42.748;12.732;2023-09-19T06:40:36;98104.50;;;25.85;45.03
36242;BME280;22283;42.748;12.732;2023-09-19T06:45:36;98110.78;;;25.86;43.77
36242;BME280;22283;42.748;12.732;2023-09-19T06:50:37;98109.91;;;26.12;43.53
36242;BME280;22283;42.748;12.732;2023-09-19T06:55:39;98101.53;;;26.20;42.26
36242;BME280;22283;42.748;12.732;2023-09-19T07:00:39;98099.59;;;26.47;41.90
36242;BME280;22283;42.748;12.732;2023-09-19T07:05:40;98116.06;;;26.52;41.85
36242;BME280;22283;42.748;12.732;2023-09-19T07:10:42;98120.97;;;26.75;41.25
36242;BME280;22283;42.748;12.732;2023-09-19T07:15:48;98119.19;;;27.01;41.17
36242;BME280;22283;42.748;12.732;2023-09-19T07:20:50;98127.50;;;27.06;41.06
36242;BME280;22283;42.748;12.732;2023-09-19T07:25:51;98134.09;;;27.23;41.39
36242;BME280;22283;42.748;12.732;2023-09-19T07:30:51;98129.44;;;27.37;41.78
36242;BME280;22283;42.748;12.732;2023-09-19T07:35:53;98126.38;;;27.20;43.48
36242;BME280;22283;42.748;12.732;2023-09-19T07:40:59;98131.13;;;27.31;43.51
36242;BME280;22283;42.748;12.732;2023-09-19T07:46:07;98127.94;;;27.41;41.95
36242;BME280;22283;42.748;12.732;2023-09-19T07:51:11;98113.06;;;27.43;42.46
36242;BME280;22283;42.748;12.732;2023-09-19T07:56:12;98117.34;;;27.58;42.79
36242;BME280;22283;42.748;12.732;2023-09-19T08:01:13;98116.28;;;27.59;42.99
36242;BME280;22283;42.748;12.732;2023-09-19T08:06:15;98115.47;;;27.58;42.84
36242;BME280;22283;42.748;12.732;2023-09-19T08:11:17;98128.34;;;27.44;43.56
36242;BME280;22283;42.748;12.732;2023-09-19T08:16:21;98125.56;;;27.51;43.81
36242;BME280;22283;42.748;12.732;2023-09-19T08:21:22;98126.66;;;27.43;45.47
36242;BME280;22283;42.748;12.732;2023-09-19T08:26:24;98118.72;;;27.67;45.47
36242;BME280;22283;42.748;12.732;2023-09-19T08:31:25;98124.75;;;28.01;45.93
36242;BME280;22283;42.748;12.732;2023-09-19T08:36:26;98134.75;;;28.25;45.76
36242;BME280;22283;42.748;12.732;2023-09-19T08:41:27;98121.84;;;28.39;45.80
36242;BME280;22283;42.748;12.732;2023-09-19T08:46:30;98122.84;;;28.63;45.20
36242;BME280;22283;42.748;12.732;2023-09-19T08:51:41;98123.94;;;28.74;45.03
36242;BME280;22283;42.748;12.732;2023-09-19T08:56:45;98122.66;;;28.76;45.71
36242;BME280;22283;42.748;12.732;2023-09-19T09:01:47;98115.97;;;29.09;44.69
36242;BME280;22283;42.748;12.732;2023-09-19T09:06:49;98122.91;;;29.23;44.90
36242;BME280;22283;42.748;12.732;2023-09-19T09:11:54;98115.75;;;29.22;44.93
36242;BME280;22283;42.748;12.732;2023-09-19T09:16:57;98126.66;;;29.22;45.65
36242;BME280;22283;42.748;12.732;2023-09-19T09:22:09;98132.19;;;29.46;45.55
36242;BME280;22283;42.748;12.732;2023-09-19T09:27:12;98134.38;;;28.95;45.30
36242;BME280;22283;42.748;12.732;2023-09-19T09:32:21;98128.00;;;28.53;46.82
36242;BME280;22283;42.748;12.732;2023-09-19T09:37:23;98132.84;;;28.26;47.29
36242;BME280;22283;42.748;12.732;2023-09-19T09:42:32;98145.66;;;27.75;50.46
36242;BME280;22283;42.748;12.732;2023-09-19T09:47:46;98140.25;;;28.00;51.34
36242;BME280;22283;42.748;12.732;2023-09-19T09:52:59;98137.94;;;27.72;50.10
36242;BME280;22283;42.748;12.732;2023-09-19T09:58:16;98133.75;;;27.76;50.39
36242;BME280;22283;42.748;12.732;2023-09-19T10:03:21;98140.13;;;27.88;50.99
36242;BME280;22283;42.748;12.732;2023-09-19T10:08:23;98137.75;;;28.17;50.90
36242;BME280;22283;42.748;12.732;2023-09-19T10:13:25;98136.63;;;28.25;50.00
36242;BME280;22283;42.748;12.732;2023-09-19T10:18:31;98148.22;;;27.95;51.09
36242;BME280;22283;42.748;12.732;2023-09-19T10:23:33;98144.22;;;27.98;51.23
36242;BME280;22283;42.748;12.732;2023-09-19T10:28:36;98131.41;;;28.05;51.67
36242;BME280;22283;42.748;12.732;2023-09-19T10:33:38;98125.63;;;28.38;51.09
36242;BME280;22283;42.748;12.732;2023-09-19T10:38:43;98119.00;;;28.82;49.81
36242;BME280;22283;42.748;12.732;2023-09-19T10:43:45;98118.56;;;28.85;50.41
36242;BME280;22283;42.748;12.732;2023-09-19T10:48:50;98121.69;;;28.71;50.50
36242;BME280;22283;42.748;12.732;2023-09-19T10:59:11;98103.47;;;28.71;50.23
36242;BME280;22283;42.748;12.732;2023-09-19T11:04:33;98102.53;;;28.47;50.98
36242;BME280;22283;42.748;12.732;2023-09-19T11:09:53;98107.88;;;28.54;51.12
36242;BME280;22283;42.748;12.732;2023-09-19T11:14:54;98096.53;;;28.38;51.43
36242;BME280;22283;42.748;12.732;2023-09-19T11:30:49;98090.50;;;28.36;54.55
36242;BME280;22283;42.748;12.732;2023-09-19T11:41:38;98082.72;;;28.88;53.29
36242;BME280;22283;42.748;12.732;2023-09-19T11:51:52;98062.91;;;29.88;49.96
36242;BME280;22283;42.748;12.732;2023-09-19T11:56:53;98045.72;;;30.00;49.64
36242;BME280;22283;42.748;12.732;2023-09-19T12:01:58;98050.31;;;30.11;49.28
36242;BME280;22283;42.748;12.732;2023-09-19T12:07:01;98052.84;;;29.77;48.38
36242;BME280;22283;42.748;12.732;2023-09-19T12:12:02;98045.47;;;29.43;49.15
36242;BME280;22283;42.748;12.732;2023-09-19T12:17:03;98037.97;;;29.26;49.31
36242;BME280;22283;42.748;12.732;2023-09-19T12:22:03;98034.53;;;29.31;48.90
36242;BME280;22283;42.748;12.732;2023-09-19T12:27:05;98021.50;;;29.45;48.86
36242;BME280;22283;42.748;12.732;2023-09-19T12:32:06;98023.16;;;29.46;47.08
36242;BME280;22283;42.748;12.732;2023-09-19T12:37:14;98017.50;;;29.47;45.64
36242;BME280;22283;42.748;12.732;2023-09-19T12:42:24;98018.22;;;29.43;45.76
36242;BME280;22283;42.748;12.732;2023-09-19T12:47:25;98016.06;;;29.45;45.88
36242;BME280;22283;42.748;12.732;2023-09-19T12:52:25;98008.97;;;29.44;45.56
36242;BME280;22283;42.748;12.732;2023-09-19T12:57:26;98005.25;;;29.03;46.35
36242;BME280;22283;42.748;12.732;2023-09-19T13:02:27;98002.75;;;29.13;45.19
36242;BME280;22283;42.748;12.732;2023-09-19T13:07:45;98004.44;;;29.37;44.73
36242;BME280;22283;42.748;12.732;2023-09-19T13:12:50;98005.06;;;29.51;44.37
36242;BME280;22283;42.748;12.732;2023-09-19T13:17:50;98002.53;;;29.50;44.25
36242;BME280;22283;42.748;12.732;2023-09-19T13:22:51;97995.78;;;29.40;42.21
36242;BME280;22283;42.748;12.732;2023-09-19T13:27:58;97997.56;;;29.23;43.24
36242;BME280;22283;42.748;12.732;2023-09-19T13:33:09;97998.16;;;29.37;42.74
36242;BME280;22283;42.748;12.732;2023-09-19T13:38:10;97989.88;;;29.32;42.83
36242;BME280;22283;42.748;12.732;2023-09-19T13:43:11;97989.88;;;29.32;43.86
36242;BME280;22283;42.748;12.732;2023-09-19T13:48:12;97988.94;;;29.26;40.73
36242;BME280;22283;42.748;12.732;2023-09-19T13:53:13;97982.88;;;29.24;40.28
36242;BME280;22283;42.748;12.732;2023-09-19T13:58:14;97982.16;;;29.40;42.17
36242;BME280;22283;42.748;12.732;2023-09-19T14:03:15;97984.34;;;29.62;41.14
36242;BME280;22283;42.748;12.732;2023-09-19T14:08:15;97975.78;;;29.47;41.56
36242;BME280;22283;42.748;12.732;2023-09-19T14:13:16;97971.03;;;29.54;41.20
36242;BME280;22283;42.748;12.732;2023-09-19T14:18:17;97971.19;;;29.71;42.25
36242;BME280;22283;42.748;12.732;2023-09-19T14:23:18;97973.66;;;29.72;41.85
36242;BME280;22283;42.748;12.732;2023-09-19T14:28:19;97970.56;;;29.80;40.65
36242;BME280;22283;42.748;12.732;2023-09-19T14:33:19;97973.03;;;29.94;38.28
36242;BME280;22283;42.748;12.732;2023-09-19T14:38:20;97969.34;;;30.00;38.42
36242;BME280;22283;42.748;12.732;2023-09-19T14:43:21;97978.97;;;29.91;38.74
36242;BME280;22283;42.748;12.732;2023-09-19T14:48:22;97969.38;;;29.76;39.58
36242;BME280;22283;42.748;12.732;2023-09-19T14:53:25;97968.00;;;29.62;40.78
36242;BME280;22283;42.748;12.732;2023-09-19T14:58:28;97977.44;;;29.36;41.24
36242;BME280;22283;42.748;12.732;2023-09-19T15:03:34;97984.19;;;29.33;42.12
36242;BME280;22283;42.748;12.732;2023-09-19T15:08:37;97973.78;;;29.42;42.70
36242;BME280;22283;42.748;12.732;2023-09-19T15:13:40;97983.47;;;29.38;43.50
36242;BME280;22283;42.748;12.732;2023-09-19T15:18:44;97980.53;;;29.39;41.91
36242;BME280;22283;42.748;12.732;2023-09-19T15:23:47;97985.47;;;29.19;42.64
36242;BME280;22283;42.748;12.732;2023-09-19T15:28:48;97992.31;;;29.10;41.42
36242;BME280;22283;42.748;12.732;2023-09-19T15:33:49;97995.56;;;28.88;41.69
36242;BME280;22283;42.748;12.732;2023-09-19T15:39:04;97998.91;;;28.60;42.73
36242;BME280;22283;42.748;12.732;2023-09-19T15:44:14;97994.63;;;28.34;43.93
36242;BME280;22283;42.748;12.732;2023-09-19T15:49:15;98007.50;;;28.09;44.03
36242;BME280;22283;42.748;12.732;2023-09-19T15:54:16;98006.38;;;27.98;45.83
36242;BME280;22283;42.748;12.732;2023-09-19T15:59:17;98010.31;;;27.84;46.65
36242;BME280;22283;42.748;12.732;2023-09-19T16:04:18;98001.78;;;27.80;47.19
36242;BME280;22283;42.748;12.732;2023-09-19T16:09:19;98013.09;;;27.77;47.79
36242;BME280;22283;42.748;12.732;2023-09-19T16:14:20;98015.47;;;27.67;48.42
36242;BME280;22283;42.748;12.732;2023-09-19T16:19:20;98016.03;;;27.51;49.07
36242;BME280;22283;42.748;12.732;2023-09-19T16:24:21;98011.59;;;27.31;50.23
36242;BME280;22283;42.748;12.732;2023-09-19T16:29:22;98026.19;;;27.12;51.17
36242;BME280;22283;42.748;12.732;2023-09-19T16:34:24;98020.09;;;26.85;52.36
36242;BME280;22283;42.748;12.732;2023-09-19T16:39:26;98023.38;;;26.62;53.96
36242;BME280;22283;42.748;12.732;2023-09-19T16:44:26;98014.66;;;26.40;55.65
36242;BME280;22283;42.748;12.732;2023-09-19T16:49:29;98019.16;;;26.14;57.03
36242;BME280;22283;42.748;12.732;2023-09-19T16:54:30;98017.13;;;25.96;58.34
36242;BME280;22283;42.748;12.732;2023-09-19T16:59:31;98018.44;;;25.74;60.05
36242;BME280;22283;42.748;12.732;2023-09-19T17:04:31;98018.66;;;25.52;61.93
36242;BME280;22283;42.748;12.732;2023-09-19T17:09:32;98009.53;;;25.27;63.92
36242;BME280;22283;42.748;12.732;2023-09-19T17:14:35;98014.91;;;25.00;66.31
36242;BME280;22283;42.748;12.732;2023-09-19T17:19:36;98008.22;;;24.76;68.24
36242;BME280;22283;42.748;12.732;2023-09-19T17:24:37;98011.91;;;24.62;70.03
36242;BME280;22283;42.748;12.732;2023-09-19T17:29:37;98008.53;;;24.40;71.79
36242;BME280;22283;42.748;12.732;2023-09-19T17:34:38;98012.19;;;24.26;73.48
36242;BME280;22283;42.748;12.732;2023-09-19T17:39:39;98022.13;;;24.12;74.80
36242;BME280;22283;42.748;12.732;2023-09-19T17:44:39;98031.84;;;24.07;75.99
36242;BME280;22283;42.748;12.732;2023-09-19T17:49:40;98040.97;;;23.99;76.87
36242;BME280;22283;42.748;12.732;2023-09-19T17:54:43;98039.91;;;23.93;77.42
36242;BME280;22283;42.748;12.732;2023-09-19T17:59:45;98050.72;;;23.93;78.13
36242;BME280;22283;42.748;12.732;2023-09-19T18:04:45;98056.13;;;23.93;77.23
36242;BME280;22283;42.748;12.732;2023-09-19T18:09:46;98066.91;;;23.93;77.61
36242;BME280;22283;42.748;12.732;2023-09-19T18:14:47;98071.00;;;23.83;77.90
36242;BME280;22283;42.748;12.732;2023-09-19T18:19:48;98084.56;;;23.89;77.96
36242;BME280;22283;42.748;12.732;2023-09-19T18:24:49;98087.72;;;23.99;77.78
36242;BME280;22283;42.748;12.732;2023-09-19T18:29:50;98094.00;;;24.07;77.20
36242;BME280;22283;42.748;12.732;2023-09-19T18:34:51;98087.44;;;24.16;77.16
36242;BME280;22283;42.748;12.732;2023-09-19T18:39:52;98102.38;;;24.12;77.39
36242;BME280;22283;42.748;12.732;2023-09-19T18:44:53;98110.59;;;23.97;78.54
36242;BME280;22283;42.748;12.732;2023-09-19T18:49:54;98115.56;;;23.93;79.17
36242;BME280;22283;42.748;12.732;2023-09-19T18:54:55;98121.34;;;23.90;79.50
36242;BME280;22283;42.748;12.732;2023-09-19T18:59:56;98124.28;;;23.95;79.39
36242;BME280;22283;42.748;12.732;2023-09-19T19:04:56;98124.72;;;23.99;79.26
36242;BME280;22283;42.748;12.732;2023-09-19T19:09:58;98132.84;;;23.99;79.48
36242;BME280;22283;42.748;12.732;2023-09-19T19:14:59;98141.78;;;23.99;79.69
36242;BME280;22283;42.748;12.732;2023-09-19T19:20:01;98142.97;;;23.90;80.04
36242;BME280;22283;42.748;12.732;2023-09-19T19:25:03;98147.47;;;23.83;81.22
36242;BME280;22283;42.748;12.732;2023-09-19T19:30:10;98148.03;;;23.72;81.77
36242;BME280;22283;42.748;12.732;2023-09-19T19:35:12;98161.38;;;23.59;84.02
36242;BME280;22283;42.748;12.732;2023-09-19T19:40:13;98159.19;;;23.47;85.37
36242;BME280;22283;42.748;12.732;2023-09-19T19:45:13;98148.81;;;23.44;89.55
36242;BME280;22283;42.748;12.732;2023-09-19T19:50:15;98153.94;;;23.39;87.85
36242;BME280;22283;42.748;12.732;2023-09-19T19:55:17;98174.94;;;23.44;86.11
36242;BME280;22283;42.748;12.732;2023-09-19T20:00:18;98179.66;;;23.35;87.32
36242;BME280;22283;42.748;12.732;2023-09-19T20:05:20;98176.94;;;23.35;87.82
36242;BME280;22283;42.748;12.732;2023-09-19T20:10:21;98179.84;;;23.34;87.40
36242;BME280;22283;42.748;12.732;2023-09-19T20:15:22;98184.28;;;23.41;86.13
36242;BME280;22283;42.748;12.732;2023-09-19T20:20:25;98187.69;;;23.28;86.85
36242;BME280;22283;42.748;12.732;2023-09-19T20:25:28;98184.53;;;23.25;87.64
36242;BME280;22283;42.748;12.732;2023-09-19T20:30:28;98199.94;;;23.10;88.23
36242;BME280;22283;42.748;12.732;2023-09-19T20:35:29;98194.28;;;22.90;90.18
36242;BME280;22283;42.748;12.732;2023-09-19T20:40:30;98196.50;;;22.86;90.55
36242;BME280;22283;42.748;12.732;2023-09-19T20:45:31;98200.97;;;22.79;93.54
36242;BME280;22283;42.748;12.732;2023-09-19T20:50:33;98204.81;;;22.70;93.03
36242;BME280;22283;42.748;12.732;2023-09-19T20:55:34;98201.66;;;22.81;91.35
36242;BME280;22283;42.748;12.732;2023-09-19T21:00:40;98214.28;;;22.95;89.82
36242;BME280;22283;42.748;12.732;2023-09-19T21:05:42;98208.06;;;22.95;89.64
36242;BME280;22283;42.748;12.732;2023-09-19T21:10:42;98203.88;;;22.63;91.83
36242;BME280;22283;42.748;12.732;2023-09-19T21:15:43;98211.03;;;22.41;94.07
36242;BME280;22283;42.748;12.732;2023-09-19T21:20:43;98215.78;;;22.24;94.99
36242;BME280;22283;42.748;12.732;2023-09-19T21:25:55;98203.47;;;22.06;95.48
36242;BME280;22283;42.748;12.732;2023-09-19T21:31:16;98212.66;;;22.12;95.27
36242;BME280;22283;42.748;12.732;2023-09-19T21:36:17;98206.16;;;22.06;95.66
36242;BME280;22283;42.748;12.732;2023-09-19T21:41:22;98203.03;;;21.80;96.98
36242;BME280;22283;42.748;12.732;2023-09-19T21:46:23;98209.59;;;21.77;96.98
36242;BME280;22283;42.748;12.732;2023-09-19T21:51:24;98205.44;;;21.52;98.91
36242;BME280;22283;42.748;12.732;2023-09-19T21:56:24;98204.34;;;21.38;99.96
36242;BME280;22283;42.748;12.732;2023-09-19T22:01:25;98212.69;;;21.20;100.00
36242;BME280;22283;42.748;12.732;2023-09-19T22:06:25;98215.03;;;20.92;100.00
36242;BME280;22283;42.748;12.732;2023-09-19T22:11:27;98214.13;;;20.69;100.00
36242;BME280;22283;42.748;12.732;2023-09-19T22:16:27;98224.25;;;20.50;100.00
36242;BME280;22283;42.748;12.732;2023-09-19T22:21:28;98235.03;;;20.34;100.00
36242;BME280;22283;42.748;12.732;2023-09-19T22:26:37;98230.84;;;20.23;100.00
36242;BME280;22283;42.748;12.732;2023-09-19T22:31:40;98251.88;;;20.20;100.00
36242;BME280;22283;42.748;12.732;2023-09-19T22:36:42;98258.75;;;20.14;100.00
36242;BME280;22283;42.748;12.732;2023-09-19T22:41:44;98266.63;;;20.24;100.00
36242;BME280;22283;42.748;12.732;2023-09-19T22:46:46;98271.31;;;20.22;100.00
36242;BME280;22283;42.748;12.732;2023-09-19T22:51:49;98269.31;;;20.07;100.00
36242;BME280;22283;42.748;12.732;2023-09-19T22:56:52;98274.38;;;19.94;100.00
36242;BME280;22283;42.748;12.732;2023-09-19T23:01:53;98276.03;;;19.87;100.00
36242;BME280;22283;42.748;12.732;2023-09-19T23:06:53;98262.09;;;19.92;100.00
36242;BME280;22283;42.748;12.732;2023-09-19T23:11:59;98258.25;;;19.94;100.00
36242;BME280;22283;42.748;12.732;2023-09-19T23:17:07;98255.56;;;20.02;100.00
36242;BME280;22283;42.748;12.732;2023-09-19T23:22:22;98246.16;;;20.06;100.00
36242;BME280;22283;42.748;12.732;2023-09-19T23:27:23;98243.81;;;19.87;100.00
36242;BME280;22283;42.748;12.732;2023-09-19T23:32:33;98240.81;;;19.65;100.00
36242;BME280;22283;42.748;12.732;2023-09-19T23:37:35;98227.66;;;19.46;100.00
36242;BME280;22283;42.748;12.732;2023-09-19T23:42:36;98244.47;;;19.48;100.00
36242;BME280;22283;42.748;12.732;2023-09-19T23:47:36;98231.34;;;19.29;100.00
36242;BME280;22283;42.748;12.732;2023-09-19T23:52:39;98231.94;;;19.06;100.00
36242;BME280;22283;42.748;12.732;2023-09-19T23:57:39;98235.94;;;18.94;100.00
